Time;durP1;ratioP1;P1;durP2;ratioP2;P2;SDS_P1;SDS_P2;PMS_P1;PMS_P2;Temp;Humidity;BMP_temperature;BMP_pressure;BME280_temperature;BME280_humidity;BME280_pressure;Samples;Min_cycle;Max_cycle;Signal;HPM_P1;HPM_P2
2024/04/10 00:01:19;;;;;;;2.47;1.10;;;14.80;51.60;;;;;;5468622;26;20312;-59
2024/04/10 00:03:45;;;;;;;3.20;1.40;;;14.90;51.40;;;;;;5470583;26;20694;-57
2024/04/10 00:06:10;;;;;;;3.47;1.50;;;14.70;51.60;;;;;;5469443;26;20285;-57
2024/04/10 00:08:36;;;;;;;2.70;1.10;;;15.00;51.60;;;;;;5479861;26;20287;-59
2024/04/10 00:11:03;;;;;;;3.47;1.43;;;15.10;51.30;;;;;;5468794;26;20259;-56
2024/04/10 00:13:30;;;;;;;3.07;1.40;;;15.20;50.80;;;;;;5467861;26;20473;-56
2024/04/10 00:16:02;;;;;;;3.83;1.60;;;15.30;50.60;;;;;;5478503;26;20464;-58
2024/04/10 00:18:28;;;;;;;4.30;1.43;;;15.50;50.50;;;;;;5472454;26;21062;-58
2024/04/10 00:20:54;;;;;;;4.07;1.33;;;15.50;50.30;;;;;;5477015;26;21184;-57
2024/04/10 00:23:20;;;;;;;2.17;1.20;;;15.60;50.00;;;;;;5484002;26;20468;-57
2024/04/10 00:25:57;;;;;;;3.17;1.80;;;15.60;49.90;;;;;;5482859;26;20235;-58
2024/04/10 00:28:23;;;;;;;3.97;1.23;;;15.60;50.40;;;;;;5470945;26;20528;-56
2024/04/10 00:30:49;;;;;;;5.13;1.47;;;15.70;49.80;;;;;;5471250;26;21232;-59
2024/04/10 00:33:14;;;;;;;2.63;1.17;;;15.60;49.70;;;;;;5469435;26;20700;-58
2024/04/10 00:35:40;;;;;;;2.07;1.40;;;15.80;49.60;;;;;;5467412;26;21101;-58
2024/04/10 00:38:06;;;;;;;3.70;1.23;;;15.90;49.30;;;;;;5477770;26;20278;-57
2024/04/10 00:40:32;;;;;;;2.23;1.20;;;16.00;49.20;;;;;;5466687;26;20304;-56
2024/04/10 00:43:02;;;;;;;4.20;1.77;;;16.00;49.00;;;;;;5469270;26;20473;-56
2024/04/10 00:45:29;;;;;;;2.23;1.50;;;16.10;49.00;;;;;;5469514;26;20294;-58
2024/04/10 00:47:54;;;;;;;1.90;1.33;;;16.10;48.80;;;;;;5473110;26;20477;-57
2024/04/10 00:50:20;;;;;;;1.43;1.33;;;16.20;48.50;;;;;;5469333;26;21075;-59
2024/04/10 00:52:46;;;;;;;1.80;1.40;;;16.20;48.50;;;;;;5475984;26;20331;-57
2024/04/10 00:55:15;;;;;;;8.23;1.70;;;16.20;48.50;;;;;;5482918;26;20754;-57
2024/04/10 00:57:42;;;;;;;2.37;1.43;;;16.30;49.20;;;;;;5482607;26;20478;-58
2024/04/10 01:00:10;;;;;;;1.73;1.07;;;16.40;48.50;;;;;;5482022;26;20675;-58
2024/04/10 01:02:35;;;;;;;1.77;1.40;;;16.50;48.50;;;;;;5482213;26;20468;-57
2024/04/10 01:05:01;;;;;;;1.67;1.20;;;16.50;48.30;;;;;;5482499;26;20524;-59
2024/04/10 01:07:26;;;;;;;3.60;1.67;;;16.30;48.20;;;;;;5482182;26;20270;-59
2024/04/10 01:09:52;;;;;;;2.60;1.40;;;16.20;49.10;;;;;;5481696;26;20773;-56
2024/04/10 01:12:18;;;;;;;1.97;1.33;;;16.30;48.90;;;;;;5483229;26;20342;-57
2024/04/10 01:14:45;;;;;;;3.10;1.30;;;16.30;48.50;;;;;;5480641;26;20514;-58
2024/04/10 01:17:10;;;;;;;3.33;2.13;;;16.40;48.40;;;;;;5482637;26;20739;-58
2024/04/10 01:19:36;;;;;;;2.00;1.50;;;16.30;48.90;;;;;;5475727;26;20515;-57
2024/04/10 01:22:01;;;;;;;1.93;1.23;;;16.30;48.80;;;;;;5475922;26;20602;-59
2024/04/10 01:24:27;;;;;;;7.37;1.47;;;16.20;48.60;;;;;;5477864;26;20823;-57
2024/04/10 01:26:53;;;;;;;6.20;1.40;;;16.20;48.50;;;;;;5475115;26;20299;-58
2024/04/10 01:29:18;;;;;;;4.20;1.33;;;16.30;49.10;;;;;;5474128;26;20738;-56
2024/04/10 01:31:44;;;;;;;1.90;1.20;;;16.30;48.60;;;;;;5479231;26;20236;-59
2024/04/10 01:34:09;;;;;;;1.23;1.13;;;16.40;48.30;;;;;;5478237;26;20247;-57
2024/04/10 01:36:35;;;;;;;2.33;1.40;;;16.50;48.70;;;;;;5477723;26;20274;-59
2024/04/10 01:39:00;;;;;;;1.97;1.40;;;16.50;48.30;;;;;;5467526;26;20235;-58
2024/04/10 01:41:26;;;;;;;2.60;1.10;;;16.50;48.00;;;;;;5471572;26;20243;-58
2024/04/10 01:43:51;;;;;;;3.40;1.43;;;16.50;47.80;;;;;;5476930;26;20724;-58
2024/04/10 01:46:17;;;;;;;3.17;1.40;;;16.50;47.80;;;;;;5469430;26;20235;-58
2024/04/10 01:48:43;;;;;;;1.87;1.17;;;16.30;48.00;;;;;;5478344;26;20377;-58
2024/04/10 01:51:08;;;;;;;3.03;1.67;;;16.20;48.30;;;;;;5477634;26;20286;-56
2024/04/10 01:53:34;;;;;;;2.73;1.83;;;16.00;48.70;;;;;;5475140;26;20235;-58
2024/04/10 01:55:59;;;;;;;1.80;1.50;;;16.00;48.70;;;;;;5466265;26;20239;-57
2024/04/10 01:58:25;;;;;;;3.37;1.43;;;16.00;49.00;;;;;;5481510;26;20247;-56
2024/04/10 02:00:51;;;;;;;3.73;1.47;;;16.00;49.10;;;;;;5471650;26;20280;-57
2024/04/10 02:03:17;;;;;;;1.53;1.37;;;15.90;48.80;;;;;;5478183;26;20464;-55
2024/04/10 02:05:42;;;;;;;2.43;1.53;;;15.90;48.90;;;;;;5469389;26;23287;-57
2024/04/10 02:08:08;;;;;;;3.07;1.50;;;16.00;48.70;;;;;;5481762;26;20231;-58
2024/04/10 02:10:33;;;;;;;2.00;1.57;;;16.00;48.60;;;;;;5468458;26;20243;-58
2024/04/10 02:12:59;;;;;;;3.07;1.47;;;15.90;49.00;;;;;;5475992;26;20363;-59
2024/04/10 02:15:24;;;;;;;2.43;2.17;;;15.70;49.20;;;;;;5474860;26;20281;-58
2024/04/10 02:17:50;;;;;;;1.73;1.20;;;15.70;49.40;;;;;;5475453;26;20317;-58
2024/04/10 02:20:16;;;;;;;3.13;1.40;;;15.70;49.40;;;;;;5472401;26;20607;-58
2024/04/10 02:22:42;;;;;;;7.30;1.63;;;15.70;49.50;;;;;;5468082;26;20285;-59
2024/04/10 02:25:08;;;;;;;2.03;1.40;;;15.70;49.70;;;;;;5473468;26;20460;-59
2024/04/10 02:27:34;;;;;;;6.10;1.30;;;15.70;49.60;;;;;;5471968;26;21555;-57
2024/04/10 02:29:59;;;;;;;3.80;1.30;;;15.70;49.40;;;;;;5476661;26;20480;-58
2024/04/10 02:32:25;;;;;;;3.10;1.50;;;15.80;49.30;;;;;;5475421;26;20594;-56
2024/04/10 02:34:50;;;;;;;2.53;1.80;;;15.80;49.30;;;;;;5476146;26;20232;-58
2024/04/10 02:37:16;;;;;;;3.17;1.60;;;15.80;49.20;;;;;;5465678;26;20706;-58
2024/04/10 02:39:42;;;;;;;1.97;1.47;;;15.80;49.20;;;;;;5441033;26;20768;-57
2024/04/10 02:42:07;;;;;;;2.27;1.33;;;15.80;49.20;;;;;;5481604;26;20299;-58
2024/04/10 02:44:33;;;;;;;3.80;1.40;;;15.80;49.10;;;;;;5474862;26;20274;-57
2024/04/10 02:46:58;;;;;;;1.83;1.47;;;15.70;49.30;;;;;;5479514;26;20243;-57
2024/04/10 02:49:24;;;;;;;4.00;2.00;;;15.70;49.20;;;;;;5471858;26;20239;-57
2024/04/10 02:51:49;;;;;;;3.10;1.43;;;15.70;49.40;;;;;;5475828;26;20721;-58
2024/04/10 02:54:15;;;;;;;5.37;1.73;;;15.70;49.40;;;;;;5480708;26;20231;-57
2024/04/10 02:56:40;;;;;;;2.87;1.73;;;15.80;49.40;;;;;;5473486;26;20354;-56
2024/04/10 02:59:07;;;;;;;1.70;1.60;;;15.90;49.20;;;;;;5482605;26;20274;-58
2024/04/10 03:01:33;;;;;;;5.17;1.67;;;16.00;49.60;;;;;;5477386;26;20288;-58
2024/04/10 03:03:59;;;;;;;3.37;1.53;;;16.00;49.00;;;;;;5479299;26;20492;-58
2024/04/10 03:06:24;;;;;;;1.70;1.47;;;16.10;48.80;;;;;;5474459;26;20294;-56
2024/04/10 03:08:50;;;;;;;2.70;1.50;;;16.10;48.60;;;;;;5476467;26;20343;-57
2024/04/10 03:11:18;;;;;;;1.90;1.50;;;16.10;48.50;;;;;;5480117;26;20247;-56
2024/04/10 03:13:44;;;;;;;2.50;1.40;;;16.10;48.40;;;;;;5474147;26;20303;-59
2024/04/10 03:16:10;;;;;;;3.07;1.73;;;16.10;48.30;;;;;;5480304;26;20472;-58
2024/04/10 03:18:36;;;;;;;2.50;1.50;;;16.00;48.40;;;;;;5479867;26;20522;-58
2024/04/10 03:21:02;;;;;;;2.70;1.60;;;16.00;48.60;;;;;;5483184;26;20476;-58
2024/04/10 03:23:28;;;;;;;2.30;1.50;;;15.90;48.60;;;;;;5471931;26;20473;-58
2024/04/10 03:26:08;;;;;;;4.23;1.93;;;16.00;48.70;;;;;;5479455;26;20805;-57
2024/04/10 03:28:33;;;;;;;2.80;1.53;;;16.00;48.50;;;;;;5471414;26;20488;-58
2024/04/10 03:31:00;;;;;;;2.40;1.57;;;16.10;48.40;;;;;;5478575;26;20601;-57
2024/04/10 03:33:26;;;;;;;2.47;1.73;;;16.10;48.30;;;;;;5474355;26;20677;-58
2024/04/10 03:35:53;;;;;;;4.67;1.70;;;16.10;48.20;;;;;;5474827;26;20469;-56
2024/04/10 03:38:18;;;;;;;3.50;1.70;;;16.10;48.30;;;;;;5479581;26;20477;-56
2024/04/10 03:40:44;;;;;;;3.47;1.80;;;16.00;48.40;;;;;;5467285;26;20520;-56
2024/04/10 03:43:10;;;;;;;4.80;1.50;;;15.80;48.90;;;;;;5469415;26;20239;-58
2024/04/10 03:45:38;;;;;;;5.40;1.90;;;15.70;49.60;;;;;;5476793;26;20529;-57
2024/04/10 03:48:04;;;;;;;2.33;1.50;;;15.60;49.30;;;;;;5480395;26;20593;-57
2024/04/10 03:50:30;;;;;;;3.03;1.47;;;15.50;49.30;;;;;;5481382;26;20472;-56
2024/04/10 03:52:56;;;;;;;3.57;1.53;;;15.40;49.50;;;;;;5482276;26;20295;-56
2024/04/10 03:55:21;;;;;;;3.43;1.80;;;15.30;49.70;;;;;;5483786;26;20508;-57
2024/04/10 03:57:47;;;;;;;3.17;1.73;;;15.30;49.90;;;;;;5482927;26;20279;-58
2024/04/10 04:00:13;;;;;;;1.23;1.13;;;15.10;50.00;;;;;;5469370;26;20235;-58
2024/04/10 04:02:38;;;;;;;4.70;1.60;;;15.00;50.10;;;;;;5477254;26;20606;-55
2024/04/10 04:05:05;;;;;;;1.97;1.40;;;15.00;50.40;;;;;;5479599;26;20243;-58
2024/04/10 04:07:30;;;;;;;2.33;1.63;;;14.90;50.40;;;;;;5481842;26;20840;-56
2024/04/10 04:09:56;;;;;;;2.80;1.70;;;14.80;50.50;;;;;;5479719;26;20560;-58
2024/04/10 04:12:21;;;;;;;4.80;1.67;;;14.80;50.80;;;;;;5481071;26;20229;-55
2024/04/10 04:14:47;;;;;;;4.27;1.90;;;14.70;50.90;;;;;;5481925;26;20406;-58
2024/04/10 04:17:13;;;;;;;4.37;2.17;;;14.60;51.00;;;;;;5481763;26;20282;-57
2024/04/10 04:19:39;;;;;;;2.50;1.70;;;14.60;51.20;;;;;;5481888;26;20718;-55
2024/04/10 04:22:05;;;;;;;2.67;1.67;;;14.60;51.30;;;;;;5483962;26;20484;-57
2024/04/10 04:24:30;;;;;;;7.93;4.00;;;14.50;51.40;;;;;;5479267;26;20235;-58
2024/04/10 04:26:56;;;;;;;44.03;27.47;;;14.50;51.50;;;;;;5477500;26;20708;-56
2024/04/10 04:29:22;;;;;;;50.53;24.73;;;14.40;51.50;;;;;;5466687;26;20679;-56
2024/04/10 04:31:50;;;;;;;23.77;12.10;;;14.40;51.60;;;;;;5471280;26;20278;-56
2024/04/10 04:34:16;;;;;;;18.03;10.43;;;14.40;51.60;;;;;;5480527;26;20480;-57
2024/04/10 04:36:42;;;;;;;7.87;4.70;;;14.40;51.50;;;;;;5481172;26;20525;-58
2024/04/10 04:39:08;;;;;;;5.20;3.53;;;14.40;51.40;;;;;;5481916;26;21044;-58
2024/04/10 04:41:34;;;;;;;4.27;2.47;;;14.40;51.40;;;;;;5478022;26;20481;-58
2024/04/10 04:44:00;;;;;;;1.67;1.57;;;14.40;51.60;;;;;;5476402;26;20244;-56
2024/04/10 04:46:25;;;;;;;3.90;1.60;;;14.40;51.60;;;;;;5476726;26;20679;-58
2024/04/10 04:48:51;;;;;;;3.20;1.90;;;14.30;51.60;;;;;;5473943;26;20294;-57
2024/04/10 04:51:17;;;;;;;4.00;2.07;;;14.40;51.60;;;;;;5478511;26;20240;-57
2024/04/10 04:53:42;;;;;;;3.37;1.80;;;14.40;51.70;;;;;;5482956;26;20304;-58
2024/04/10 04:56:08;;;;;;;4.50;1.47;;;14.40;52.30;;;;;;5482184;26;21051;-58
2024/04/10 04:58:33;;;;;;;2.70;1.77;;;14.40;51.80;;;;;;5481970;26;20286;-57
2024/04/10 05:00:59;;;;;;;3.17;1.60;;;14.40;51.80;;;;;;5480082;26;20826;-58
2024/04/10 05:06:09;;;;;;;2.70;1.63;;;14.30;51.90;;;;;;5468605;26;20559;-58
2024/04/10 05:08:35;;;;;;;3.93;1.43;;;14.40;51.90;;;;;;5471774;26;20868;-58
2024/04/10 05:11:08;;;;;;;5.10;2.10;;;14.40;51.60;;;;;;5473489;26;20239;-58
2024/04/10 05:13:35;;;;;;;3.57;1.60;;;14.40;51.30;;;;;;5468603;26;20243;-59
2024/04/10 05:16:01;;;;;;;8.17;2.40;;;14.50;51.80;;;;;;5477675;26;20547;-57
2024/04/10 05:18:26;;;;;;;6.43;2.27;;;14.60;51.20;;;;;;5468490;26;20576;-57
2024/04/10 05:20:52;;;;;;;3.87;1.30;;;14.70;51.00;;;;;;5481010;26;20636;-58
2024/04/10 05:23:18;;;;;;;6.57;1.57;;;14.80;50.80;;;;;;5482428;26;20283;-58
2024/04/10 05:25:45;;;;;;;4.50;1.70;;;14.90;50.50;;;;;;5470649;26;20296;-59
2024/04/10 05:28:11;;;;;;;4.00;1.77;;;15.00;50.50;;;;;;5479424;26;20536;-57
2024/04/10 05:30:37;;;;;;;6.20;1.63;;;15.00;49.90;;;;;;5468765;26;20476;-58
2024/04/10 05:33:03;;;;;;;4.77;1.53;;;15.10;50.00;;;;;;5476936;26;20251;-56
2024/04/10 05:35:29;;;;;;;3.67;1.80;;;15.20;49.70;;;;;;5481057;26;20535;-58
2024/04/10 05:37:55;;;;;;;5.30;1.70;;;15.20;49.60;;;;;;5474116;26;20830;-58
2024/04/10 05:40:21;;;;;;;3.60;1.50;;;15.30;49.50;;;;;;5477323;26;20235;-58
2024/04/10 05:42:48;;;;;;;2.87;1.63;;;15.40;49.50;;;;;;5481801;26;20519;-59
2024/04/10 05:45:14;;;;;;;6.90;2.27;;;15.50;49.30;;;;;;5482168;26;20228;-59
2024/04/10 05:47:49;;;;;;;3.57;1.60;;;15.60;49.30;;;;;;5481793;26;20562;-58
2024/04/10 05:50:14;;;;;;;6.03;2.00;;;15.80;49.20;;;;;;5480633;26;20512;-57
2024/04/10 05:52:41;;;;;;;5.40;1.50;;;15.80;48.80;;;;;;5480753;26;20817;-59
2024/04/10 05:55:07;;;;;;;6.03;2.20;;;15.90;48.70;;;;;;5478112;26;20231;-59
2024/04/10 05:57:33;;;;;;;5.57;1.47;;;16.00;48.60;;;;;;5479199;26;20586;-60
2024/04/10 05:59:59;;;;;;;9.63;2.97;;;16.10;48.40;;;;;;5480969;26;20479;-58
2024/04/10 06:02:30;;;;;;;5.70;1.70;;;16.00;47.70;;;;;;5479354;26;20290;-61
2024/04/10 06:04:59;;;;;;;5.83;2.23;;;15.80;47.60;;;;;;5474727;26;20734;-62
2024/04/10 06:07:25;;;;;;;13.40;7.50;;;15.60;48.30;;;;;;5480723;26;20799;-59
2024/04/10 06:09:52;;;;;;;2.93;1.63;;;15.30;48.20;;;;;;5479036;26;20545;-58
2024/04/10 06:12:18;;;;;;;4.13;2.03;;;15.00;48.60;;;;;;5481514;26;20468;-61
2024/04/10 06:14:43;;;;;;;7.60;1.77;;;15.00;48.90;;;;;;5479486;26;21007;-61
2024/04/10 06:17:10;;;;;;;7.90;2.50;;;15.00;48.80;;;;;;5473991;26;20734;-58
2024/04/10 06:19:35;;;;;;;5.03;1.80;;;14.90;48.60;;;;;;5480398;26;20235;-59
2024/04/10 06:22:01;;;;;;;7.33;2.03;;;14.90;49.00;;;;;;5481804;26;20477;-58
2024/04/10 06:24:26;;;;;;;6.93;2.47;;;15.00;49.10;;;;;;5478501;26;20865;-61
2024/04/10 06:26:52;;;;;;;5.30;2.90;;;15.00;49.10;;;;;;5475207;26;20251;-61
2024/04/10 06:29:18;;;;;;;5.37;2.00;;;15.00;48.90;;;;;;5478761;26;20240;-57
2024/04/10 06:31:44;;;;;;;7.20;2.13;;;15.20;48.70;;;;;;5480953;26;20575;-57
2024/04/10 06:34:10;;;;;;;5.93;1.93;;;15.20;48.70;;;;;;5484395;26;20547;-60
2024/04/10 06:36:35;;;;;;;19.20;9.83;;;15.20;48.30;;;;;;5483480;26;20239;-58
2024/04/10 06:39:01;;;;;;;8.83;5.63;;;15.10;48.50;;;;;;5480570;26;20622;-57
2024/04/10 06:41:27;;;;;;;7.70;3.70;;;15.20;48.70;;;;;;5485414;26;20290;-60
2024/04/10 06:43:52;;;;;;;6.27;5.00;;;15.20;48.50;;;;;;5482665;26;20236;-58
2024/04/10 06:46:18;;;;;;;7.97;3.50;;;15.40;48.60;;;;;;5485410;26;20793;-59
2024/04/10 06:48:44;;;;;;;6.47;2.87;;;15.50;48.40;;;;;;5484579;26;20715;-60
2024/04/10 06:51:10;;;;;;;3.87;2.10;;;15.60;48.40;;;;;;5484924;26;20579;-62
2024/04/10 06:53:37;;;;;;;3.10;1.80;;;15.50;48.40;;;;;;5480246;26;20468;-57
2024/04/10 06:56:05;;;;;;;7.80;1.80;;;15.40;48.40;;;;;;5483230;26;20480;-60
2024/04/10 06:58:34;;;;;;;9.40;1.87;;;15.30;48.40;;;;;;5483047;26;20476;-59
2024/04/10 07:01:03;;;;;;;3.13;1.73;;;15.10;48.70;;;;;;5483773;26;20468;-59
2024/04/10 07:03:31;;;;;;;5.30;2.47;;;15.10;49.40;;;;;;5481213;26;20467;-61
2024/04/10 07:06:06;;;;;;;4.43;1.73;;;15.10;48.90;;;;;;5479915;26;20516;-55
2024/04/10 07:08:36;;;;;;;5.20;2.07;;;15.20;48.70;;;;;;5476383;26;20472;-57
2024/04/10 07:11:04;;;;;;;6.30;1.70;;;15.20;48.70;;;;;;5479816;26;20573;-58
2024/04/10 07:13:33;;;;;;;5.80;1.73;;;15.10;48.90;;;;;;5478418;26;20539;-60
2024/04/10 07:16:03;;;;;;;8.73;2.00;;;15.00;48.90;;;;;;5482347;26;20520;-60
2024/04/10 07:18:30;;;;;;;8.27;2.00;;;14.80;49.40;;;;;;5482912;26;20468;-57
2024/04/10 07:21:17;;;;;;;3.53;1.63;;;14.70;49.70;;;;;;5483157;26;20460;-61
2024/04/10 07:23:45;;;;;;;9.20;2.20;;;14.70;50.00;;;;;;5479795;26;20484;-63
2024/04/10 07:26:12;;;;;;;8.90;1.80;;;14.90;49.70;;;;;;5483259;26;20947;-63
2024/04/10 07:28:40;;;;;;;6.63;2.07;;;15.20;49.40;;;;;;5482372;26;20533;-60
2024/04/10 07:31:07;;;;;;;7.73;2.37;;;15.30;49.80;;;;;;5479873;26;20477;-57
2024/04/10 07:33:33;;;;;;;10.37;2.30;;;15.30;48.90;;;;;;5484375;26;20460;-60
2024/04/10 07:36:13;;;;;;;8.93;2.47;;;15.20;48.90;;;;;;5484964;26;20464;-61
2024/04/10 07:38:40;;;;;;;7.20;1.90;;;15.50;48.90;;;;;;5481267;26;20289;-57
2024/04/10 07:41:06;;;;;;;4.77;1.43;;;15.60;48.30;;;;;;5480502;26;20838;-62
2024/04/10 07:43:34;;;;;;;6.27;2.20;;;15.50;48.40;;;;;;5483038;26;20480;-60
2024/04/10 07:46:12;;;;;;;5.33;2.53;;;15.50;48.40;;;;;;5482157;26;21089;-62
2024/04/10 07:48:42;;;;;;;9.33;1.60;;;15.50;48.40;;;;;;5480925;26;20574;-60
2024/04/10 07:51:10;;;;;;;6.30;1.97;;;15.60;48.30;;;;;;5466708;26;20536;-59
2024/04/10 07:53:37;;;;;;;9.77;2.47;;;15.60;48.30;;;;;;5478462;26;20476;-62
2024/04/10 07:56:04;;;;;;;8.53;2.60;;;15.70;48.40;;;;;;5481638;26;20456;-62
2024/04/10 07:58:30;;;;;;;9.67;2.77;;;15.70;48.00;;;;;;5478263;26;20472;-61
2024/04/10 08:00:58;;;;;;;8.70;1.70;;;15.80;48.00;;;;;;5481200;26;20521;-61
2024/04/10 08:03:25;;;;;;;8.77;2.07;;;15.90;48.10;;;;;;5485266;26;20456;-62
2024/04/10 08:05:54;;;;;;;4.83;1.57;;;15.90;47.50;;;;;;5484890;26;20524;-61
2024/04/10 08:08:20;;;;;;;6.93;2.10;;;15.90;47.60;;;;;;5479506;26;20477;-62
2024/04/10 08:10:47;;;;;;;9.07;3.37;;;15.90;47.70;;;;;;5483761;26;20456;-60
2024/04/10 08:13:13;;;;;;;5.93;2.27;;;15.90;48.20;;;;;;5485056;26;20331;-61
2024/04/10 08:15:38;;;;;;;6.70;1.77;;;15.90;47.90;;;;;;5482690;26;20953;-60
2024/04/10 08:18:05;;;;;;;7.07;2.17;;;15.70;48.70;;;;;;5481100;26;20231;-60
2024/04/10 08:20:31;;;;;;;13.33;2.80;;;15.70;47.90;;;;;;5484238;26;20231;-61
2024/04/10 08:22:56;;;;;;;9.87;2.63;;;15.60;48.00;;;;;;5478218;26;20530;-61
2024/04/10 08:25:22;;;;;;;7.53;2.07;;;15.70;48.30;;;;;;5483119;26;20468;-60
2024/04/10 08:27:47;;;;;;;10.53;2.30;;;15.70;48.00;;;;;;5477699;26;20331;-58
2024/04/10 08:30:13;;;;;;;5.03;2.07;;;15.90;48.30;;;;;;5479764;26;20232;-58
2024/04/10 08:32:39;;;;;;;6.20;2.00;;;16.10;47.70;;;;;;5482843;26;20251;-60
2024/04/10 08:35:05;;;;;;;12.00;3.07;;;16.20;47.50;;;;;;5470901;26;20236;-59
2024/04/10 08:37:31;;;;;;;14.10;2.07;;;16.50;47.40;;;;;;5477170;26;20629;-60
2024/04/10 08:39:57;;;;;;;6.80;1.90;;;16.60;47.00;;;;;;5480560;26;20892;-62
2024/04/10 08:42:23;;;;;;;4.03;2.00;;;16.80;46.70;;;;;;5477796;26;20601;-61
2024/04/10 08:44:52;;;;;;;9.47;2.90;;;16.80;46.00;;;;;;5483655;26;20488;-59
2024/04/10 08:47:18;;;;;;;6.77;2.20;;;16.80;45.80;;;;;;5479859;26;20469;-60
2024/04/10 08:49:44;;;;;;;4.40;2.20;;;16.80;45.90;;;;;;5482447;26;20578;-62
2024/04/10 08:52:11;;;;;;;8.97;2.20;;;16.90;45.90;;;;;;5483116;26;20476;-58
2024/04/10 08:54:37;;;;;;;6.23;2.17;;;17.00;46.40;;;;;;5482830;26;20723;-62
2024/04/10 08:57:03;;;;;;;11.30;3.20;;;17.20;46.40;;;;;;5481197;26;20566;-61
2024/04/10 08:59:30;;;;;;;6.83;2.20;;;17.30;45.80;;;;;;5481298;26;20480;-59
2024/04/10 09:01:57;;;;;;;6.07;2.57;;;17.30;44.90;;;;;;5482285;26;20607;-59
2024/04/10 09:04:24;;;;;;;4.97;2.07;;;17.40;44.00;;;;;;5484108;26;20514;-61
2024/04/10 09:06:59;;;;;;;4.87;2.07;;;17.40;43.70;;;;;;5479388;26;20634;-61
2024/04/10 09:09:24;;;;;;;8.97;2.63;;;17.60;43.90;;;;;;5481320;26;20913;-62
2024/04/10 09:11:53;;;;;;;9.00;2.20;;;17.60;43.60;;;;;;5478948;26;20484;-59
2024/04/10 09:14:18;;;;;;;8.50;2.20;;;17.80;43.70;;;;;;5477185;26;20247;-61
2024/04/10 09:16:44;;;;;;;8.33;2.90;;;17.80;43.50;;;;;;5475956;26;20536;-61
2024/04/10 09:19:10;;;;;;;8.17;2.27;;;17.70;43.00;;;;;;5480895;26;20712;-58
2024/04/10 09:21:37;;;;;;;8.83;3.10;;;17.80;42.80;;;;;;5475627;26;20569;-65
2024/04/10 09:24:04;;;;;;;6.87;2.80;;;17.90;42.30;;;;;;5478526;26;20477;-63
2024/04/10 09:26:30;;;;;;;7.43;2.37;;;18.00;42.00;;;;;;5476177;26;20480;-62
2024/04/10 09:29:03;;;;;;;6.47;2.60;;;18.20;42.00;;;;;;5480965;26;21077;-62
2024/04/10 09:31:30;;;;;;;11.60;3.07;;;18.30;43.30;;;;;;5480880;26;20304;-62
2024/04/10 09:33:56;;;;;;;5.90;2.90;;;18.40;43.10;;;;;;5481084;26;20460;-62
2024/04/10 09:36:22;;;;;;;6.37;2.60;;;18.70;41.50;;;;;;5480561;26;21129;-63
2024/04/10 09:38:49;;;;;;;8.17;2.27;;;18.90;40.20;;;;;;5479286;26;20472;-62
2024/04/10 09:41:16;;;;;;;6.60;2.70;;;18.90;39.30;;;;;;5479574;26;20473;-61
2024/04/10 09:43:43;;;;;;;5.90;2.70;;;18.90;40.80;;;;;;5482552;26;20524;-63
2024/04/10 09:46:09;;;;;;;7.33;3.07;;;19.10;41.50;;;;;;5481004;26;20461;-62
2024/04/10 09:48:37;;;;;;;5.70;2.30;;;19.40;41.40;;;;;;5481216;26;20979;-61
2024/04/10 09:51:10;;;;;;;5.73;2.10;;;19.60;40.70;;;;;;5480217;26;20516;-61
2024/04/10 09:53:36;;;;;;;6.63;2.70;;;19.80;39.20;;;;;;5479803;26;21066;-62
2024/04/10 09:56:04;;;;;;;6.27;1.77;;;19.90;39.20;;;;;;5479601;26;20669;-62
2024/04/10 09:58:32;;;;;;;5.40;2.37;;;20.00;38.00;;;;;;5479863;26;21019;-64
2024/04/10 10:01:00;;;;;;;7.63;2.40;;;20.10;38.00;;;;;;5473909;26;20882;-62
2024/04/10 10:03:26;;;;;;;5.13;1.90;;;20.30;37.80;;;;;;5477650;26;20619;-62
2024/04/10 10:06:06;;;;;;;3.90;2.20;;;20.30;38.20;;;;;;5477176;26;20590;-61
2024/04/10 10:08:36;;;;;;;4.83;1.97;;;20.40;38.00;;;;;;5472280;26;21003;-61
2024/04/10 10:11:05;;;;;;;4.20;1.67;;;20.40;37.90;;;;;;5481422;26;20461;-61
2024/04/10 10:13:31;;;;;;;4.47;1.70;;;20.50;35.30;;;;;;5480775;26;20464;-60
2024/04/10 10:16:04;;;;;;;2.70;1.67;;;20.40;33.20;;;;;;5478651;26;20457;-61
2024/04/10 10:18:30;;;;;;;5.60;1.93;;;20.50;33.60;;;;;;5479637;26;20465;-63
2024/04/10 10:21:07;;;;;;;4.20;1.60;;;20.40;34.10;;;;;;5475457;26;21138;-61
2024/04/10 10:23:34;;;;;;;4.60;1.57;;;20.70;35.50;;;;;;5475951;26;20463;-61
2024/04/10 10:26:00;;;;;;;7.37;2.50;;;20.80;36.10;;;;;;5479910;26;21338;-63
2024/04/10 10:28:26;;;;;;;6.40;2.40;;;21.00;35.20;;;;;;5479296;26;20480;-63
2024/04/10 10:30:52;;;;;;;3.47;1.53;;;21.20;35.40;;;;;;5479765;26;20477;-60
2024/04/10 10:33:20;;;;;;;7.77;2.63;;;21.20;33.80;;;;;;5480394;26;20557;-59
2024/04/10 10:35:46;;;;;;;5.33;1.50;;;21.30;32.80;;;;;;5479396;26;20231;-61
2024/04/10 10:38:11;;;;;;;8.43;2.30;;;21.40;32.40;;;;;;5481664;26;20509;-59
2024/04/10 10:40:37;;;;;;;6.50;1.87;;;21.60;32.90;;;;;;5474574;26;20332;-61
2024/04/10 10:43:04;;;;;;;4.67;2.30;;;22.00;33.70;;;;;;5481524;26;20232;-60
2024/04/10 10:45:31;;;;;;;5.20;2.40;;;22.10;32.60;;;;;;5478278;26;20239;-60
2024/04/10 10:47:56;;;;;;;11.60;2.43;;;22.00;32.60;;;;;;5478846;26;20476;-61
2024/04/10 10:50:22;;;;;;;8.90;2.10;;;22.00;32.90;;;;;;5478863;26;20510;-60
2024/04/10 10:52:48;;;;;;;3.80;2.00;;;22.00;32.70;;;;;;5480818;26;20274;-59
2024/04/10 10:55:14;;;;;;;3.43;1.80;;;22.00;33.30;;;;;;5479119;26;20236;-59
2024/04/10 10:57:40;;;;;;;6.07;1.83;;;22.00;34.20;;;;;;5481161;26;20854;-63
2024/04/10 11:00:19;;;;;;;8.00;2.00;;;22.00;33.50;;;;;;5478467;26;20529;-61
2024/04/10 11:02:44;;;;;;;4.17;1.70;;;22.10;34.40;;;;;;5478352;26;20239;-61
2024/04/10 11:05:14;;;;;;;7.10;1.80;;;22.00;33.70;;;;;;5479647;26;20561;-61
2024/04/10 11:07:41;;;;;;;2.40;1.70;;;22.00;33.60;;;;;;5478076;26;20235;-63
2024/04/10 11:10:11;;;;;;;5.47;2.00;;;22.10;32.30;;;;;;5480141;26;20480;-62
2024/04/10 11:12:37;;;;;;;3.53;1.37;;;22.00;31.70;;;;;;5481862;26;20472;-61
2024/04/10 11:15:12;;;;;;;3.07;1.53;;;22.00;31.80;;;;;;5474844;26;21386;-61
2024/04/10 11:17:38;;;;;;;4.83;1.90;;;21.90;32.10;;;;;;5480504;26;20916;-58
2024/04/10 11:20:10;;;;;;;5.13;1.70;;;21.90;33.10;;;;;;5480255;26;20464;-59
2024/04/10 11:22:36;;;;;;;3.57;1.30;;;21.90;31.10;;;;;;5481435;26;21347;-60
2024/04/10 11:25:03;;;;;;;5.70;1.63;;;22.00;32.20;;;;;;5477216;26;20574;-58
2024/04/10 11:27:28;;;;;;;3.23;1.37;;;22.10;30.80;;;;;;5482327;26;20468;-59
2024/04/10 11:29:54;;;;;;;4.20;1.50;;;22.30;32.50;;;;;;5477615;26;20520;-60
2024/04/10 11:32:20;;;;;;;6.40;2.33;;;22.70;31.60;;;;;;5484050;26;20236;-61
2024/04/10 11:34:46;;;;;;;3.00;1.60;;;23.00;31.00;;;;;;5481519;26;20783;-62
2024/04/10 11:37:13;;;;;;;4.00;1.77;;;23.30;30.20;;;;;;5480076;26;20243;-62
2024/04/10 11:39:38;;;;;;;2.30;1.37;;;23.50;31.70;;;;;;5476578;26;20821;-58
2024/04/10 11:42:04;;;;;;;4.90;1.67;;;23.40;30.50;;;;;;5472691;26;20536;-61
2024/04/10 11:44:30;;;;;;;8.57;2.27;;;23.40;31.50;;;;;;5481208;26;20278;-61
2024/04/10 11:46:55;;;;;;;2.90;1.60;;;23.70;31.40;;;;;;5481980;26;20348;-61
2024/04/10 11:49:21;;;;;;;5.43;1.70;;;24.00;29.80;;;;;;5479343;26;20332;-63
2024/04/10 11:51:47;;;;;;;3.17;1.77;;;24.10;29.00;;;;;;5476407;26;20235;-62
2024/04/10 11:54:13;;;;;;;4.87;1.87;;;23.70;28.70;;;;;;5476064;26;20511;-60
2024/04/10 11:56:39;;;;;;;2.63;1.60;;;23.60;29.50;;;;;;5482574;26;20592;-62
2024/04/10 11:59:04;;;;;;;3.50;1.73;;;23.80;29.80;;;;;;5482032;26;20532;-58
2024/04/10 12:01:30;;;;;;;4.53;1.63;;;23.90;31.30;;;;;;5496789;21;20290;-62
2024/04/10 12:03:55;;;;;;;4.57;2.00;;;24.00;31.30;;;;;;5483515;26;20231;-58
2024/04/10 12:06:21;;;;;;;2.83;1.50;;;24.00;29.50;;;;;;5481030;26;20240;-61
2024/04/10 12:08:46;;;;;;;6.37;2.30;;;24.10;29.80;;;;;;5480168;26;20244;-59
2024/04/10 12:11:12;;;;;;;4.80;1.63;;;24.10;29.40;;;;;;5480374;26;20277;-61
2024/04/10 12:13:41;;;;;;;4.50;1.50;;;24.00;29.20;;;;;;5474798;26;20299;-60
2024/04/10 12:16:10;;;;;;;3.20;1.50;;;24.00;28.90;;;;;;5472306;26;21023;-61
2024/04/10 12:18:35;;;;;;;6.60;1.77;;;24.00;29.50;;;;;;5480305;26;20664;-61
2024/04/10 12:21:02;;;;;;;4.90;1.50;;;24.10;28.90;;;;;;5476815;26;20477;-61
2024/04/10 12:23:27;;;;;;;7.00;1.37;;;24.20;29.60;;;;;;5484100;26;20239;-62
2024/04/10 12:25:53;;;;;;;2.87;1.60;;;24.10;29.60;;;;;;5477455;26;20532;-59
2024/04/10 12:28:18;;;;;;;4.00;1.60;;;24.30;29.30;;;;;;5481362;26;20259;-59
2024/04/10 12:30:44;;;;;;;4.33;1.37;;;24.50;30.10;;;;;;5483363;26;20236;-59
2024/04/10 12:33:09;;;;;;;4.00;1.97;;;24.60;28.80;;;;;;5484391;26;20278;-61
2024/04/10 12:38:25;;;;;;;3.00;1.97;;;24.60;30.40;;;;;;5390867;26;20232;-60
2024/04/10 12:41:01;;;;;;;3.90;1.40;;;24.40;31.00;;;;;;5483530;26;20465;-61
2024/04/10 12:43:26;;;;;;;5.50;1.87;;;24.40;30.80;;;;;;5479249;26;20460;-60
2024/04/10 12:45:52;;;;;;;3.20;1.50;;;24.40;29.50;;;;;;5480899;26;21395;-58
2024/04/10 12:48:18;;;;;;;2.53;1.30;;;24.30;29.80;;;;;;5476563;26;20244;-60